createdAt,value
2018-09-26T00:01:00.176Z,4.10
2018-09-26T00:03:36.413Z,3.67
2018-09-26T00:06:07.457Z,4.00
2018-09-26T00:08:39.745Z,3.90
2018-09-26T00:11:10.918Z,4.10
2018-09-26T00:13:42.922Z,4.30
2018-09-26T00:16:14.095Z,4.30
2018-09-26T00:18:46.224Z,4.80
2018-09-26T00:21:18.094Z,4.80
2018-09-26T00:23:49.952Z,4.10
2018-09-26T00:26:21.857Z,4.03
2018-09-26T00:28:52.946Z,4.07
2018-09-26T00:31:23.842Z,4.40
2018-09-26T00:33:55.676Z,4.10
2018-09-26T00:36:27.620Z,4.30
2018-09-26T00:38:59.144Z,4.67
2018-09-26T00:41:31.147Z,4.20
2018-09-26T00:44:03.694Z,4.23
2018-09-26T00:46:35.592Z,4.13
2018-09-26T00:49:07.200Z,4.10
2018-09-26T00:51:39.048Z,4.13
2018-09-26T00:54:11.030Z,4.33
2018-09-26T00:56:42.856Z,4.40
2018-09-26T00:59:14.822Z,4.53
2018-09-26T01:01:46.662Z,3.93
2018-09-26T01:04:18.601Z,4.20
2018-09-26T01:06:50.122Z,3.73
2018-09-26T01:09:22.022Z,4.20
2018-09-26T01:11:53.848Z,4.13
2018-09-26T01:14:25.629Z,3.63
2018-09-26T01:16:57.557Z,4.50
2018-09-26T01:19:28.876Z,4.10
2018-09-26T01:22:00.626Z,4.10
2018-09-26T01:24:32.578Z,5.20
2018-09-26T01:27:04.042Z,4.67
2018-09-26T01:29:35.803Z,4.73
2018-09-26T01:32:07.656Z,4.60
2018-09-26T01:34:39.563Z,4.17
2018-09-26T01:37:11.336Z,4.37
2018-09-26T01:39:42.500Z,4.10
2018-09-26T01:42:14.300Z,3.73
2018-09-26T01:44:46.211Z,3.93
2018-09-26T01:47:18.026Z,3.83
2018-09-26T01:49:49.676Z,3.87
2018-09-26T01:52:21.019Z,3.93
2018-09-26T01:54:52.977Z,3.80
2018-09-26T01:57:24.694Z,3.73
2018-09-26T01:59:56.028Z,3.33
2018-09-26T02:02:27.910Z,3.40
2018-09-26T02:04:58.360Z,3.77
2018-09-26T02:07:30.378Z,3.80
2018-09-26T02:10:02.219Z,4.10
2018-09-26T02:12:33.948Z,3.80
2018-09-26T02:15:05.890Z,3.50
2018-09-26T02:17:38.342Z,3.60
2018-09-26T02:20:09.653Z,3.60
2018-09-26T02:22:41.150Z,3.93
2018-09-26T02:25:12.700Z,3.60
2018-09-26T02:27:43.680Z,3.60
2018-09-26T02:30:15.570Z,3.53
2018-09-26T02:32:46.187Z,3.17
2018-09-26T02:35:18.984Z,3.60
2018-09-26T02:37:50.900Z,4.20
2018-09-26T02:40:21.336Z,3.90
2018-09-26T02:42:53.488Z,3.70
2018-09-26T02:45:23.984Z,3.77
2018-09-26T02:47:55.808Z,3.60
2018-09-26T02:50:27.074Z,3.30
2018-09-26T02:52:58.290Z,3.50
2018-09-26T02:55:29.542Z,3.37
2018-09-26T02:58:01.390Z,3.80
2018-09-26T03:00:32.672Z,3.70
2018-09-26T03:03:04.445Z,3.70
2018-09-26T03:05:35.471Z,3.57
2018-09-26T03:08:07.637Z,3.57
2018-09-26T03:10:38.708Z,3.57
2018-09-26T03:13:10.588Z,3.57
2018-09-26T03:15:41.101Z,3.83
2018-09-26T03:18:12.661Z,3.50
2018-09-26T03:20:43.757Z,3.70
2018-09-26T03:23:15.596Z,3.70
2018-09-26T03:25:46.764Z,3.53
2018-09-26T03:28:17.984Z,3.50
2018-09-26T03:30:49.171Z,3.83
2018-09-26T03:33:21.147Z,3.37
2018-09-26T03:35:52.370Z,3.60
2018-09-26T03:38:24.322Z,3.63
2018-09-26T03:40:55.458Z,3.57
2018-09-26T03:43:27.325Z,3.50
2018-09-26T03:45:58.513Z,3.70
2018-09-26T03:48:30.393Z,3.50
2018-09-26T03:51:01.528Z,3.83
2018-09-26T03:53:33.749Z,3.70
2018-09-26T03:56:03.932Z,3.93
2018-09-26T03:58:35.911Z,4.30
2018-09-26T04:01:07.462Z,3.87
2018-09-26T04:03:39.056Z,3.90
2018-09-26T04:06:09.608Z,3.50
2018-09-26T04:08:40.890Z,3.60
2018-09-26T04:11:12.241Z,4.00
2018-09-26T04:13:44.671Z,3.73
2018-09-26T04:16:16.043Z,3.87
2018-09-26T04:18:47.389Z,4.07
2018-09-26T04:21:19.786Z,4.40
2018-09-26T04:23:51.701Z,4.17
2018-09-26T04:26:22.964Z,4.23
2018-09-26T04:28:54.401Z,3.97
2018-09-26T04:31:26.561Z,4.10
2018-09-26T04:33:59.242Z,4.37
2018-09-26T04:36:31.872Z,4.10
2018-09-26T04:39:02.314Z,3.90
2018-09-26T04:41:34.090Z,4.30
2018-09-26T04:44:06.240Z,4.40
2018-09-26T04:46:38.008Z,4.47
2018-09-26T04:49:09.245Z,3.80
2018-09-26T04:51:41.030Z,4.17
2018-09-26T04:54:12.570Z,4.00
2018-09-26T04:56:43.811Z,4.37
2018-09-26T04:59:15.572Z,4.93
2018-09-26T05:01:47.566Z,4.10
2018-09-26T05:04:20.229Z,4.60
2018-09-26T05:06:51.796Z,5.23
2018-09-26T05:09:23.898Z,4.53
2018-09-26T05:11:55.784Z,5.13
2018-09-26T05:14:27.157Z,5.80
2018-09-26T05:16:58.873Z,4.77
2018-09-26T05:19:30.695Z,5.23
2018-09-26T05:22:02.381Z,5.33
2018-09-26T05:24:33.798Z,5.50
2018-09-26T05:27:04.579Z,6.10
2018-09-26T05:29:35.596Z,6.47
2018-09-26T05:32:07.705Z,6.30
2018-09-26T05:34:39.041Z,6.40
2018-09-26T05:37:09.710Z,6.13
2018-09-26T05:39:40.488Z,6.43
2018-09-26T05:42:11.045Z,7.10
2018-09-26T05:44:41.584Z,7.80
2018-09-26T05:47:13.465Z,7.00
2018-09-26T05:49:44.140Z,6.77
2018-09-26T05:52:15.492Z,7.23
2018-09-26T05:54:46.716Z,6.97
2018-09-26T05:57:17.962Z,6.90
2018-09-26T05:59:49.502Z,6.33
2018-09-26T06:02:20.254Z,7.37
2018-09-26T06:04:51.796Z,6.70
2018-09-26T06:07:22.309Z,6.43
2018-09-26T06:09:53.288Z,6.43
2018-09-26T06:12:23.906Z,6.67
2018-09-26T06:14:54.842Z,7.10
2018-09-26T06:17:26.377Z,6.50
2018-09-26T06:19:58.526Z,5.83
2018-09-26T06:22:29.670Z,6.30
2018-09-26T06:25:01.351Z,6.90
2018-09-26T06:27:32.170Z,7.67
2018-09-26T06:30:04.270Z,9.73
2018-09-26T06:32:34.911Z,11.30
2018-09-26T06:35:06.476Z,10.67
2018-09-26T06:37:39.004Z,10.87
2018-09-26T06:40:10.660Z,5.60
2018-09-26T06:42:43.631Z,6.87
2018-09-26T06:45:15.019Z,4.23
2018-09-26T06:47:47.072Z,3.87
2018-09-26T06:50:18.304Z,3.00
2018-09-26T06:52:49.556Z,2.93
2018-09-26T06:55:22.375Z,3.37
2018-09-26T06:57:53.938Z,3.73
2018-09-26T07:00:26.220Z,3.87
2018-09-26T07:02:58.096Z,3.20
2018-09-26T07:05:30.162Z,3.17
2018-09-26T07:08:02.248Z,3.57
2018-09-26T07:10:33.360Z,2.97
2018-09-26T07:13:04.564Z,4.10
2018-09-26T07:15:36.668Z,4.50
2018-09-26T07:18:09.600Z,5.30
2018-09-26T07:20:40.748Z,5.60
2018-09-26T07:23:12.356Z,4.90
2018-09-26T07:25:45.686Z,4.30
2018-09-26T07:28:17.167Z,4.03
2018-09-26T07:30:48.416Z,7.10
2018-09-26T07:33:20.464Z,3.70
2018-09-26T07:35:51.974Z,3.20
2018-09-26T07:38:23.343Z,3.77
2018-09-26T07:40:55.030Z,3.37
2018-09-26T07:43:27.058Z,3.17
2018-09-26T07:45:59.576Z,3.00
2018-09-26T07:48:31.009Z,3.40
2018-09-26T07:51:02.776Z,3.40
2018-09-26T07:53:35.160Z,2.43
2018-09-26T07:56:07.364Z,3.33
2018-09-26T07:58:38.632Z,2.27
2018-09-26T08:01:10.444Z,2.40
2018-09-26T08:03:42.656Z,2.10
2018-09-26T08:06:14.520Z,2.00
2018-09-26T08:08:45.874Z,1.93
2018-09-26T08:11:17.839Z,2.23
2018-09-26T08:13:50.788Z,2.00
2018-09-26T08:16:23.266Z,1.70
2018-09-26T08:18:53.878Z,1.60
2018-09-26T08:21:25.773Z,1.90
2018-09-26T08:23:58.023Z,2.00
2018-09-26T08:26:29.377Z,1.67
2018-09-26T08:29:01.093Z,2.00
2018-09-26T08:31:33.909Z,1.50
2018-09-26T08:34:05.936Z,1.70
2018-09-26T08:36:37.400Z,1.80
2018-09-26T08:39:10.799Z,1.60
2018-09-26T08:41:42.926Z,1.80
2018-09-26T08:44:16.206Z,1.40
2018-09-26T08:46:47.470Z,1.70
2018-09-26T08:49:19.860Z,1.90
2018-09-26T08:51:51.940Z,1.47
2018-09-26T08:54:22.966Z,1.30
2018-09-26T08:56:54.839Z,1.40
2018-09-26T08:59:27.063Z,1.37
2018-09-26T09:01:58.924Z,1.53
2018-09-26T09:04:30.397Z,1.70
2018-09-26T09:07:02.325Z,1.40
2018-09-26T09:09:34.239Z,1.93
2018-09-26T09:12:06.736Z,1.67
2018-09-26T09:14:37.989Z,1.50
2018-09-26T09:17:09.287Z,1.53
2018-09-26T09:19:41.909Z,1.40
2018-09-26T09:22:14.349Z,2.50
2018-09-26T09:24:45.940Z,1.57
2018-09-26T09:27:18.028Z,1.50
2018-09-26T09:29:50.394Z,1.40
2018-09-26T09:32:21.836Z,2.80
2018-09-26T09:34:53.945Z,2.70
2018-09-26T09:37:26.245Z,2.13
2018-09-26T09:39:57.984Z,1.70
2018-09-26T09:42:29.244Z,1.50
2018-09-26T09:45:00.753Z,1.40
2018-09-26T09:47:33.028Z,2.00
2018-09-26T09:50:05.066Z,1.40
2018-09-26T09:52:36.476Z,1.20
2018-09-26T09:55:07.757Z,1.47
2018-09-26T09:57:40.068Z,2.10
2018-09-26T10:00:11.724Z,1.30
2018-09-26T10:02:43.095Z,1.30
2018-09-26T10:05:14.352Z,1.40
2018-09-26T10:07:46.846Z,1.40
2018-09-26T10:10:18.440Z,1.30
2018-09-26T10:12:49.602Z,1.67
2018-09-26T10:15:21.233Z,1.60
2018-09-26T10:17:53.676Z,1.60
2018-09-26T10:20:25.342Z,1.90
2018-09-26T10:22:56.902Z,1.83
2018-09-26T10:25:29.005Z,1.60
2018-09-26T10:28:01.108Z,1.60
2018-09-26T10:30:32.353Z,1.57
2018-09-26T10:33:03.740Z,1.60
2018-09-26T10:35:36.644Z,1.40
2018-09-26T10:38:08.987Z,1.40
2018-09-26T10:40:40.462Z,1.63
2018-09-26T10:43:11.967Z,1.80
2018-09-26T10:45:44.078Z,1.40
2018-09-26T10:48:16.106Z,1.47
2018-09-26T10:50:47.591Z,1.63
2018-09-26T10:53:20.533Z,2.20
2018-09-26T10:55:52.152Z,1.40
2018-09-26T10:58:23.590Z,1.57
2018-09-26T11:00:54.896Z,2.57
2018-09-26T11:03:26.886Z,1.60
2018-09-26T11:05:59.086Z,1.70
2018-09-26T11:08:30.331Z,1.30
2018-09-26T11:11:01.784Z,1.40
2018-09-26T11:13:34.008Z,1.60
2018-09-26T11:16:06.104Z,1.63
2018-09-26T11:18:37.478Z,1.70
2018-09-26T11:21:08.999Z,1.60
2018-09-26T11:23:41.091Z,1.70
2018-09-26T11:26:14.237Z,1.63
2018-09-26T11:28:45.865Z,1.73
2018-09-26T11:31:18.238Z,1.50
2018-09-26T11:33:49.742Z,1.50
2018-09-26T11:36:21.413Z,1.73
2018-09-26T11:38:52.596Z,1.73
2018-09-26T11:41:25.215Z,2.43
2018-09-26T11:43:57.178Z,1.77
2018-09-26T11:46:28.441Z,1.80
2018-09-26T11:48:59.891Z,1.50
2018-09-26T11:51:32.796Z,1.70
2018-09-26T11:54:04.644Z,1.90
2018-09-26T11:56:36.015Z,1.70
2018-09-26T11:59:08.184Z,2.00
2018-09-26T12:01:40.148Z,2.00
2018-09-26T12:04:11.606Z,2.23
2018-09-26T12:06:42.971Z,1.80
2018-09-26T12:09:13.502Z,2.13
2018-09-26T12:11:45.545Z,1.60
2018-09-26T12:14:16.818Z,2.03
2018-09-26T12:16:48.128Z,2.20
2018-09-26T12:19:20.439Z,2.20
2018-09-26T12:21:53.036Z,1.90
2018-09-26T12:24:25.279Z,2.10
2018-09-26T12:26:56.782Z,1.97
2018-09-26T12:29:28.850Z,2.00
2018-09-26T12:32:00.934Z,2.02
2018-09-26T12:34:31.969Z,1.87
2018-09-26T12:37:03.299Z,1.97
2018-09-26T12:39:35.724Z,1.67
2018-09-26T12:42:08.508Z,1.70
2018-09-26T12:44:39.259Z,1.80
2018-09-26T12:47:10.611Z,2.77
2018-09-26T12:49:42.659Z,1.90
2018-09-26T12:52:14.716Z,1.80
2018-09-26T12:54:45.955Z,1.40
2018-09-26T12:57:17.978Z,1.90
2018-09-26T12:59:49.880Z,1.77
2018-09-26T13:02:21.474Z,1.80
2018-09-26T13:04:52.907Z,1.93
2018-09-26T13:07:24.888Z,1.70
2018-09-26T13:09:57.712Z,1.50
2018-09-26T13:12:29.357Z,1.70
2018-09-26T13:15:00.501Z,1.57
2018-09-26T13:17:33.223Z,1.60
2018-09-26T13:20:05.919Z,2.37
2018-09-26T13:22:36.775Z,1.60
2018-09-26T13:25:08.235Z,1.80
2018-09-26T13:27:40.259Z,1.87
2018-09-26T13:30:12.506Z,1.80
2018-09-26T13:32:44.122Z,1.50
2018-09-26T13:35:16.264Z,1.43
2018-09-26T13:37:48.509Z,1.63
2018-09-26T13:40:21.456Z,2.17
2018-09-26T13:42:52.888Z,1.93
2018-09-26T13:45:24.791Z,2.00
2018-09-26T13:47:56.714Z,2.00
2018-09-26T13:50:28.468Z,1.70
2018-09-26T13:53:00.260Z,1.77
2018-09-26T13:55:32.384Z,1.97
2018-09-26T13:58:04.339Z,1.65
2018-09-26T14:00:34.861Z,1.90
2018-09-26T14:03:06.440Z,2.20
2018-09-26T14:05:38.539Z,1.90
2018-09-26T14:08:10.212Z,1.60
2018-09-26T14:10:41.588Z,1.47
2018-09-26T14:13:12.880Z,1.63
2018-09-26T14:15:44.956Z,1.70
2018-09-26T14:18:16.388Z,1.70
2018-09-26T14:20:47.795Z,1.60
2018-09-26T14:23:20.434Z,1.83
2018-09-26T14:25:52.600Z,1.37
2018-09-26T14:28:24.000Z,1.70
2018-09-26T14:30:55.373Z,1.90
2018-09-26T14:33:27.198Z,2.27
2018-09-26T14:35:59.280Z,1.80
2018-09-26T14:38:30.714Z,1.57
2018-09-26T14:41:02.168Z,1.83
2018-09-26T14:43:34.108Z,1.70
2018-09-26T14:46:06.046Z,1.70
2018-09-26T14:48:37.343Z,2.30
2018-09-26T14:51:08.722Z,2.70
2018-09-26T14:53:40.677Z,2.60
2018-09-26T14:56:12.331Z,2.00
2018-09-26T14:58:43.772Z,1.80
2018-09-26T15:01:18.535Z,1.90
2018-09-26T15:03:50.662Z,1.87
2018-09-26T15:06:22.010Z,2.00
2018-09-26T15:08:53.738Z,1.70
2018-09-26T15:11:25.752Z,2.00
2018-09-26T15:13:58.082Z,2.00
2018-09-26T15:16:28.921Z,1.90
2018-09-26T15:19:00.371Z,1.80
2018-09-26T15:21:32.476Z,1.70
2018-09-26T15:24:04.659Z,2.20
2018-09-26T15:26:36.053Z,1.90
2018-09-26T15:29:07.469Z,1.90
2018-09-26T15:31:39.555Z,1.90
2018-09-26T15:34:11.498Z,2.20
2018-09-26T15:36:42.866Z,1.90
2018-09-26T15:39:14.059Z,3.10
2018-09-26T15:41:46.083Z,2.83
2018-09-26T15:44:18.862Z,2.30
2018-09-26T15:46:51.190Z,2.07
2018-09-26T15:49:23.405Z,1.63
2018-09-26T15:51:55.373Z,1.40
2018-09-26T15:54:27.214Z,1.83
2018-09-26T15:56:57.809Z,1.87
2018-09-26T15:59:30.024Z,1.77
2018-09-26T16:02:02.135Z,1.70
2018-09-26T16:04:33.181Z,1.70
2018-09-26T16:07:04.612Z,2.10
2018-09-26T16:09:37.122Z,2.30
2018-09-26T16:12:09.184Z,2.00
2018-09-26T16:14:41.378Z,2.13
2018-09-26T16:17:12.599Z,1.97
2018-09-26T16:19:44.558Z,1.90
2018-09-26T16:22:16.031Z,1.97
2018-09-26T16:24:47.545Z,2.30
2018-09-26T16:27:19.652Z,2.73
2018-09-26T16:29:51.726Z,2.20
2018-09-26T16:32:23.400Z,2.77
2018-09-26T16:34:54.049Z,3.10
2018-09-26T16:37:27.111Z,3.80
2018-09-26T16:39:58.903Z,3.90
2018-09-26T16:42:30.169Z,3.50
2018-09-26T16:45:01.578Z,2.80
2018-09-26T16:47:33.820Z,2.30
2018-09-26T16:50:05.959Z,1.93
2018-09-26T16:52:37.502Z,2.03
2018-09-26T16:55:08.978Z,2.40
2018-09-26T16:57:40.864Z,2.47
2018-09-26T17:00:12.596Z,2.27
2018-09-26T17:02:44.374Z,2.77
2018-09-26T17:05:16.656Z,2.50
2018-09-26T17:07:49.916Z,2.40
2018-09-26T17:10:20.713Z,2.00
2018-09-26T17:12:51.676Z,2.53
2018-09-26T17:15:23.625Z,2.30
2018-09-26T17:17:56.075Z,2.50
2018-09-26T17:20:27.376Z,2.50
2018-09-26T17:22:59.016Z,2.70
2018-09-26T17:25:31.534Z,3.13
2018-09-26T17:28:03.895Z,2.93
2018-09-26T17:30:35.558Z,2.77
2018-09-26T17:33:07.183Z,3.00
2018-09-26T17:35:39.473Z,2.80
2018-09-26T17:38:11.856Z,2.87
2018-09-26T17:40:43.176Z,2.30
2018-09-26T17:43:15.071Z,2.60
2018-09-26T17:45:47.245Z,4.03
2018-09-26T17:48:20.384Z,3.90
2018-09-26T17:50:52.509Z,6.03
2018-09-26T17:53:24.297Z,3.73
2018-09-26T17:55:56.773Z,3.50
2018-09-26T17:58:28.259Z,3.93
2018-09-26T18:00:59.801Z,12.07
2018-09-26T18:03:31.548Z,15.17
2018-09-26T18:06:04.679Z,31.60
2018-09-26T18:08:36.167Z,29.10
2018-09-26T18:11:07.791Z,30.33
2018-09-26T18:13:39.563Z,27.00
2018-09-26T18:16:11.452Z,19.73
2018-09-26T18:18:42.806Z,14.07
2018-09-26T18:21:14.005Z,12.70
2018-09-26T18:23:45.852Z,10.70
2018-09-26T18:26:17.053Z,7.73
2018-09-26T18:28:49.063Z,5.60
2018-09-26T18:31:20.457Z,5.03
2018-09-26T18:33:54.035Z,5.13
2018-09-26T18:36:25.674Z,3.73
2018-09-26T18:38:57.115Z,2.80
2018-09-26T18:41:29.399Z,3.63
2018-09-26T18:44:01.381Z,3.60
2018-09-26T18:46:33.663Z,3.57
2018-09-26T18:49:12.268Z,4.23
2018-09-26T18:51:44.589Z,3.50
2018-09-26T18:54:15.908Z,3.40
2018-09-26T18:56:47.295Z,3.70
2018-09-26T18:59:19.529Z,3.03
2018-09-26T19:01:51.802Z,3.70
2018-09-26T19:04:23.620Z,3.40
2018-09-26T19:06:55.255Z,2.40
2018-09-26T19:09:27.401Z,3.23
2018-09-26T19:11:59.374Z,2.77
2018-09-26T19:14:30.937Z,2.40
2018-09-26T19:17:02.304Z,2.43
2018-09-26T19:19:34.385Z,2.60
2018-09-26T19:22:05.972Z,2.63
2018-09-26T19:24:37.085Z,2.67
2018-09-26T19:27:08.577Z,2.30
2018-09-26T19:29:40.449Z,2.47
2018-09-26T19:32:12.012Z,2.50
2018-09-26T19:34:43.389Z,2.00
2018-09-26T19:37:14.659Z,2.70
2018-09-26T19:39:46.853Z,2.30
2018-09-26T19:42:18.272Z,2.33
2018-09-26T19:44:49.776Z,2.27
2018-09-26T19:47:24.655Z,2.30
2018-09-26T19:49:56.657Z,2.90
2018-09-26T19:52:28.890Z,2.50
2018-09-26T19:55:00.753Z,2.70
2018-09-26T19:57:32.654Z,2.70
2018-09-26T20:00:04.752Z,2.33
2018-09-26T20:02:36.325Z,2.30
2018-09-26T20:05:08.664Z,2.70
2018-09-26T20:07:40.608Z,2.80
2018-09-26T20:10:12.795Z,3.23
2018-09-26T20:12:45.177Z,3.40
2018-09-26T20:15:17.032Z,3.10
2018-09-26T20:17:48.804Z,3.17
2018-09-26T20:20:20.676Z,3.13
2018-09-26T20:22:52.472Z,3.00
2018-09-26T20:25:24.479Z,2.73
2018-09-26T20:27:56.311Z,2.57
2018-09-26T20:30:28.367Z,2.60
2018-09-26T20:33:00.299Z,2.10
2018-09-26T20:35:32.185Z,2.30
2018-09-26T20:38:04.506Z,2.30
2018-09-26T20:40:36.335Z,2.30
2018-09-26T20:43:08.343Z,2.40
2018-09-26T20:45:40.283Z,2.10
2018-09-26T20:48:11.961Z,2.43
2018-09-26T20:50:52.142Z,2.30
2018-09-26T20:53:23.985Z,2.40
2018-09-26T20:55:56.022Z,2.30
2018-09-26T20:58:27.257Z,2.33
2018-09-26T21:00:59.627Z,2.07
2018-09-26T21:03:31.777Z,2.50
2018-09-26T21:06:03.995Z,2.37
2018-09-26T21:08:36.301Z,1.90
2018-09-26T21:11:08.127Z,2.00
2018-09-26T21:13:39.935Z,2.33
2018-09-26T21:16:11.817Z,2.13
2018-09-26T21:18:43.477Z,2.90
2018-09-26T21:21:15.330Z,1.93
2018-09-26T21:23:47.916Z,2.30
2018-09-26T21:26:20.238Z,2.20
2018-09-26T21:28:51.926Z,2.03
2018-09-26T21:31:24.477Z,2.40
2018-09-26T21:33:56.872Z,2.23
2018-09-26T21:36:29.384Z,2.10
2018-09-26T21:39:01.627Z,2.10
2018-09-26T21:41:33.070Z,2.10
2018-09-26T21:44:05.075Z,2.00
2018-09-26T21:46:37.674Z,2.10
2018-09-26T21:49:10.431Z,2.20
2018-09-26T21:51:42.460Z,2.13
2018-09-26T21:54:14.271Z,2.10
2018-09-26T21:56:46.144Z,2.20
2018-09-26T21:59:17.877Z,1.80
2018-09-26T22:01:49.706Z,2.03
2018-09-26T22:04:21.661Z,1.80
2018-09-26T22:06:53.664Z,1.90
2018-09-26T22:09:25.417Z,1.90
2018-09-26T22:11:56.977Z,2.10
2018-09-26T22:14:28.822Z,2.00
2018-09-26T22:17:00.845Z,1.80
2018-09-26T22:19:32.307Z,1.93
2018-09-26T22:22:04.199Z,1.90
2018-09-26T22:24:36.819Z,2.07
2018-09-26T22:27:08.206Z,1.90
2018-09-26T22:29:40.036Z,2.03
2018-09-26T22:32:11.808Z,2.27
2018-09-26T22:34:43.392Z,1.70
2018-09-26T22:37:15.258Z,1.90
2018-09-26T22:39:47.391Z,1.77
2018-09-26T22:42:19.110Z,1.90
2018-09-26T22:44:50.850Z,1.70
2018-09-26T22:47:22.718Z,2.13
2018-09-26T22:49:54.544Z,1.70
2018-09-26T22:52:26.451Z,1.70
2018-09-26T22:54:58.290Z,1.90
2018-09-26T22:57:30.122Z,1.87
2018-09-26T23:00:01.821Z,1.60
2018-09-26T23:02:33.577Z,2.07
2018-09-26T23:05:05.996Z,1.80
2018-09-26T23:07:37.806Z,1.90
2018-09-26T23:10:10.240Z,2.10
2018-09-26T23:12:41.675Z,2.00
2018-09-26T23:15:13.576Z,1.83
2018-09-26T23:17:45.459Z,1.70
2018-09-26T23:20:17.214Z,1.53
2018-09-26T23:22:48.955Z,1.80
2018-09-26T23:25:20.796Z,1.70
2018-09-26T23:27:52.494Z,2.00
2018-09-26T23:30:24.173Z,1.90
2018-09-26T23:32:56.183Z,1.60
2018-09-26T23:35:28.057Z,1.70
2018-09-26T23:37:59.966Z,1.70
2018-09-26T23:40:31.814Z,1.97
2018-09-26T23:43:03.688Z,1.70
2018-09-26T23:45:35.559Z,1.93
2018-09-26T23:48:07.345Z,1.80
2018-09-26T23:50:38.980Z,1.63
2018-09-26T23:53:10.229Z,1.73
2018-09-26T23:55:41.812Z,1.83
2018-09-26T23:58:13.918Z,1.77
